Friday, July 01, 2016
13:28 UTC
  |  Log In   |  Register Free
Airport Search:

Ormond Beach Municipal Airport
(KOMN)

FAA data valid effective May 26 2016 - Jul 21 2016 (unless otherwise noted).

 
 
 
 
 
 
 
 
 
 
 
 
 
 
Current Aviation Weather for KOMN

Weather Summary


The most recent METAR observation for OMN was updated at: 12:50 UTC
METAR for KOMN is not available. Closest METAR is for KDAB
KOMN  (most recent observation was updatred at 11:25 UTC)
011250Z 24005KT 10SM SKC 25/24 A3006

KDAB  (7.8 nm NW)   (most recent observation was updated at 11:25 UTC)
011253Z 23006KT 10SM FEW015 FEW040 SCT110 SCT200 26/24 A3006 RMK AO2 SLP177 T02610244

KFIN  (11.1 nm SE)   (most recent observation was updated at 11:25 UTC)
011250Z 22005KT 10SM SCT005 25/25 A3005

TAF for KOMN is not available.
KDAB  (7.8 nm NW)   (most recent observation was updatred at 11:13 UTC)
011139Z 0112/0212 20003KT P6SM FEW040 SCT100 BKN200 FM011400 24006KT P6SM SCT035 SCT250 FM011900 07007KT P6SM VCTS SCT040CB BKN100 TEMPO 0120/0123 3SM TSRA BKN020CB OVC040 FM020000 16004KT P6SM SCT030 OVC100 FM020400 19003KT P6SM SCT050 OVC250


KSFB  (32.1 nm NE)   (most recent observation was updatred at 11:13 UTC)
011139Z 0112/0212 22003KT P6SM FEW030 FEW150 FM011400 23006KT P6SM SCT035 SCT250 FM011900 26007KT P6SM VCTS SCT040CB BKN100 TEMPO 0119/0123 3SM TSRA BKN020CB OVC040 FM012300 14006KT P6SM SCT040 OVC100 FM020400 18003KT P6SM SCT050 OVC250


GlobalAir.com is loading additional information.
 Current Weather at OMN
75.0 F° (24.0 C°)

Southwest winds at 5.8 mph
Pressure:
30.04 in
Humidity:
100%
Wind:
Southwest at 5.8 mph
Dew Point:
75.2 F° (24.0 C°)
Visibility:
10.00 mi
OMN NOAA Radar




Find All Airport Services Find A Hotel Find A Rental Car Find A Golf Course Find A Restaurant $100 Hamburger



Airport Weather Forecast for KOMN

Translated METAR for KOMN (1250 UTC)
METAR:
KOMN 011250Z 24005KT 10SM SKC 25/24 A3006
Conditions at:
KOMN (Ormond Beach Muni, FL) observed 1250 UTC 01 July 2016
Temperature:
25°C (77°F)
Dewpoint:
24°C (75.2°F) [RH = 94.2]
Pressure:
30.06 inches Hg (1017.9 mb)
Winds:
from the WSW (240 degrees) at 5.8 mph (5 knots: 2.6 m/s)
Visibility:
10 mile(s)
Ceiling:
at least 12,000 feet AGL
Clouds:
Clear Skies
Remarks:

Translated TAF for KDAB (Daytona Beach Intl, FL) (1139 UTC)
TAF text:
KDAB 011139Z 0112/0212 20003KT P6SM FEW040 SCT100 BKN200
Forecast period:
Friday Jul 01 2016 12:00 UTC - Saturday Jul 02 2016 12:00 UTC
Forecast type:
FROM: standard forecast or significant change
Winds:
from the SSW (200 degrees) at 3.5 mph (3 knots: 1.5 m/s)
Visibility:
6 or more mile(s) (9.7+ km)
Ceiling:
20,000 feet AGL
Clouds:
Few Clouds at 4,000 feet AGL
Scattered Clouds at 10,000 feet AGL
Broken Cloud Cover at 20,000 feet AGL
Weather:
no significant weather observed at this time
TAF text:
FM011400 24006KT P6SM SCT035 SCT250
Forecast period:
Friday Jul 01 2016 14:00 UTC - Friday Jul 01 2016 19:00 UTC
Forecast type:
FROM: standard forecast or significant change
Winds:
from the WSW (240 degrees) at 6.9 mph (6 knots: 3.1 m/s)
Visibility:
6 or more mile(s) (9.7+ km)
Ceiling:
at least 12,000 feet AGL
Clouds:
Scattered Clouds at 3,500 feet AGL
Scattered Clouds at 25,000 feet AGL
Weather:
no significant weather observed at this time
TAF text:
FM011900 07007KT P6SM VCTS SCT040CB BKN100
Forecast period:
Friday Jul 01 2016 19:00 UTC - Saturday Jul 02 2016 00:00 UTC
Forecast type:
FROM: standard forecast or significant change
Winds:
from the ENE (070 degrees) at 8.1 mph (7 knots: 3.6 m/s)
Visibility:
6 or more mile(s) (9.7+ km)
Ceiling:
10,000 feet AGL
Clouds:
Broken Cloud Cover at 10,000 feet AGL
Weather:
Moderate In Vicinity Thunderstorm
TAF text:
0120/0123 3SM TSRA BKN020CB OVC040
Forecast period:
Saturday Jul 02 2016 20:00 UTC - Saturday Jul 02 2016 23:00 UTC
Forecast type:
FROM: standard forecast or significant change
Winds:
Visibility:
3 mile(s) (4.8 km)
Ceiling:
4,000 feet AGL
Clouds:
Overcast Skies at 4,000 feet AGL
Weather:
Moderate Thunderstorm Rain
TAF text:
FM020000 16004KT P6SM SCT030 OVC100
Forecast period:
Saturday Jul 02 2016 00:00 UTC - Saturday Jul 02 2016 04:00 UTC
Forecast type:
FROM: standard forecast or significant change
Winds:
from the SSE (160 degrees) at 4.6 mph (4 knots: 2.1 m/s)
Visibility:
6 or more mile(s) (9.7+ km)
Ceiling:
10,000 feet AGL
Clouds:
Scattered Clouds at 3,000 feet AGL
Overcast Skies at 10,000 feet AGL
Weather:
no significant weather observed at this time
TAF text:
FM020400 19003KT P6SM SCT050 OVC250
Forecast period:
Saturday Jul 02 2016 04:00 UTC - Saturday Jul 02 2016 12:00 UTC
Forecast type:
FROM: standard forecast or significant change
Winds:
from the S (190 degrees) at 3.5 mph (3 knots: 1.5 m/s)
Visibility:
6 or more mile(s) (9.7+ km)
Ceiling:
25,000 feet AGL
Clouds:
Scattered Clouds at 5,000 feet AGL
Overcast Skies at 25,000 feet AGL
Weather:
no significant weather observed at this time
FBO's on the Field
FBO Company Facility Photos Services Transportation Aviation Fuel Prices: Prices include tax
Catering Weather Repair Courtesy Rental Type 100LL JetA JetA+ MOGAS 8087
 
Sunrise Aviation

Currently rated 5 by 3 people
FS:Shell
Last Updated: Jun-24
Login to update fuel prices
SS:
Contact Sunrise AviationMore FBO Information
 
Add another FBO Facility Photos Catering Weather Repair Courtesy Rental Type 100LL JetA JetA+ MOGAS 8087
Services Transportation Aviation Fuel Prices: Prices include tax


model-print
model-print
model-print
model-print